createdAt,value
2023-03-26T00:00:09.634Z,10.42
2023-03-26T00:01:17.875Z,10.39
2023-03-26T00:02:20.097Z,10.34
2023-03-26T00:03:22.495Z,10.33
2023-03-26T00:04:25.546Z,10.43
2023-03-26T00:05:28.007Z,10.40
2023-03-26T00:06:37.750Z,10.46
2023-03-26T00:07:40.499Z,10.52
2023-03-26T00:08:45.133Z,10.49
2023-03-26T00:09:47.760Z,10.54
2023-03-26T00:10:50.357Z,10.51
2023-03-26T00:11:52.794Z,10.55
2023-03-26T00:12:56.137Z,10.52
2023-03-26T00:13:58.365Z,10.46
2023-03-26T00:15:00.643Z,10.52
2023-03-26T00:16:03.729Z,10.53
2023-03-26T00:17:06.150Z,10.50
2023-03-26T00:18:09.322Z,10.47
2023-03-26T00:19:12.671Z,10.49
2023-03-26T00:20:14.878Z,10.62
2023-03-26T00:21:22.588Z,10.67
2023-03-26T00:22:25.338Z,10.57
2023-03-26T00:23:28.835Z,10.54
2023-03-26T00:24:31.017Z,10.59
2023-03-26T00:25:34.849Z,10.53
2023-03-26T00:26:41.011Z,10.35
2023-03-26T00:27:45.812Z,10.24
2023-03-26T00:28:50.824Z,10.19
2023-03-26T00:29:56.288Z,10.19
2023-03-26T00:31:04.586Z,10.16
2023-03-26T00:32:06.805Z,10.25
2023-03-26T00:33:12.055Z,10.23
2023-03-26T00:34:18.504Z,10.19
2023-03-26T00:35:22.467Z,10.20
2023-03-26T00:36:26.731Z,10.15
2023-03-26T00:37:30.350Z,10.17
2023-03-26T00:38:38.701Z,10.24
2023-03-26T00:39:42.799Z,10.19
2023-03-26T00:40:48.120Z,10.21
2023-03-26T00:41:54.155Z,10.31
2023-03-26T00:42:56.800Z,10.34
2023-03-26T00:44:00.225Z,10.30
2023-03-26T00:45:02.446Z,10.17
2023-03-26T00:46:06.338Z,10.28
2023-03-26T00:47:08.798Z,10.28
2023-03-26T00:48:11.663Z,10.17
2023-03-26T00:49:17.910Z,10.25
2023-03-26T00:50:20.582Z,10.19
2023-03-26T00:51:23.583Z,10.05
2023-03-26T00:52:28.645Z,10.14
2023-03-26T00:53:31.989Z,10.12
2023-03-26T00:54:35.390Z,10.17
2023-03-26T00:55:38.762Z,10.19
2023-03-26T00:56:41.180Z,10.24
2023-03-26T00:57:45.996Z,10.29
2023-03-26T00:58:50.191Z,10.31
2023-03-26T00:59:52.933Z,10.29
2023-03-26T01:00:58.898Z,10.24
2023-03-26T01:02:01.608Z,10.21
2023-03-26T01:03:05.681Z,10.17
2023-03-26T01:04:28.157Z,10.15
2023-03-26T01:05:34.526Z,10.15
2023-03-26T01:06:41.935Z,10.17
2023-03-26T01:07:44.773Z,10.19
2023-03-26T01:08:49.421Z,10.15
2023-03-26T01:09:51.717Z,10.09
2023-03-26T01:11:02.980Z,10.08
2023-03-26T01:12:08.872Z,9.91
2023-03-26T01:13:12.292Z,9.92
2023-03-26T01:14:24.742Z,9.94
2023-03-26T01:15:30.168Z,9.97
2023-03-26T01:16:46.453Z,10.07
2023-03-26T01:17:51.946Z,10.10
2023-03-26T01:18:58.685Z,10.07
2023-03-26T01:20:16.460Z,10.15
2023-03-26T01:21:28.777Z,10.21
2023-03-26T01:22:31.259Z,10.24
2023-03-26T01:23:49.196Z,10.23
2023-03-26T01:24:56.620Z,10.27
2023-03-26T01:26:28.909Z,10.31
2023-03-26T01:27:40.927Z,10.27
2023-03-26T01:28:43.508Z,10.15
2023-03-26T01:29:48.919Z,10.15
2023-03-26T01:31:06.289Z,10.14
2023-03-26T01:32:19.023Z,10.05
2023-03-26T01:33:30.028Z,10.02
2023-03-26T01:34:50.845Z,10.06
2023-03-26T01:36:11.506Z,10.01
2023-03-26T01:37:32.634Z,10.00
2023-03-26T01:38:46.863Z,10.01
2023-03-26T01:39:57.231Z,10.08
2023-03-26T01:41:26.976Z,9.97
2023-03-26T01:42:46.756Z,10.00
2023-03-26T01:44:03.031Z,10.01
2023-03-26T01:45:22.795Z,10.02
2023-03-26T01:46:27.416Z,10.09
2023-03-26T01:47:32.392Z,10.02
2023-03-26T01:48:39.850Z,10.02
2023-03-26T01:49:42.058Z,10.05
2023-03-26T01:50:44.890Z,9.96
2023-03-26T01:51:47.746Z,9.97
2023-03-26T01:52:50.127Z,9.98
2023-03-26T01:53:53.673Z,10.00
2023-03-26T01:54:56.753Z,10.09
2023-03-26T01:56:17.727Z,10.05
2023-03-26T01:57:39.651Z,10.00
2023-03-26T01:58:58.431Z,9.94
2023-03-26T02:00:18.632Z,9.88
2023-03-26T02:01:34.103Z,9.86
2023-03-26T02:03:01.655Z,9.92
2023-03-26T02:04:30.699Z,9.81
2023-03-26T02:05:44.083Z,9.84
2023-03-26T02:06:52.754Z,9.85
2023-03-26T02:08:13.529Z,9.83
2023-03-26T02:09:22.412Z,9.75
2023-03-26T02:10:35.074Z,9.72
2023-03-26T02:11:39.806Z,9.75
2023-03-26T02:12:44.496Z,9.80
2023-03-26T02:13:47.422Z,9.76
2023-03-26T02:14:51.760Z,9.74
2023-03-26T02:16:03.569Z,9.72
2023-03-26T02:17:06.056Z,9.67
2023-03-26T02:18:11.049Z,9.66
2023-03-26T02:19:16.094Z,9.73
2023-03-26T02:20:20.823Z,9.73
2023-03-26T02:21:26.211Z,9.83
2023-03-26T02:22:29.937Z,9.80
2023-03-26T02:23:36.034Z,9.82
2023-03-26T02:24:38.853Z,9.97
2023-03-26T02:25:43.828Z,10.07
2023-03-26T02:26:46.636Z,10.06
2023-03-26T02:27:51.695Z,9.94
2023-03-26T02:28:54.123Z,9.94
2023-03-26T02:29:56.353Z,9.93
2023-03-26T02:31:01.646Z,9.95
2023-03-26T02:32:06.528Z,9.96
2023-03-26T02:33:08.792Z,9.90
2023-03-26T02:34:16.977Z,9.93
2023-03-26T02:35:26.672Z,9.82
2023-03-26T02:36:36.215Z,9.81
2023-03-26T02:37:40.075Z,9.74
2023-03-26T02:38:54.524Z,9.77
2023-03-26T02:39:57.236Z,9.84
2023-03-26T02:41:06.272Z,9.82
2023-03-26T02:42:27.583Z,9.82
2023-03-26T02:43:29.973Z,9.87
2023-03-26T02:44:32.737Z,9.88
2023-03-26T02:45:35.112Z,9.88
2023-03-26T02:46:40.046Z,9.80
2023-03-26T02:48:02.571Z,9.79
2023-03-26T02:49:23.629Z,9.59
2023-03-26T02:50:26.422Z,9.57
2023-03-26T02:51:56.285Z,9.62
2023-03-26T02:53:02.136Z,9.67
2023-03-26T02:54:07.971Z,9.71
2023-03-26T02:55:27.410Z,9.74
2023-03-26T02:56:33.000Z,9.83
2023-03-26T02:58:07.699Z,9.69
2023-03-26T02:59:13.804Z,9.70
2023-03-26T03:00:22.223Z,9.59
2023-03-26T03:01:24.580Z,9.51
2023-03-26T03:02:29.897Z,9.57
2023-03-26T03:03:40.071Z,9.63
2023-03-26T03:05:06.125Z,9.72
2023-03-26T03:06:10.299Z,9.73
2023-03-26T03:07:20.351Z,9.70
2023-03-26T03:08:26.367Z,9.66
2023-03-26T03:09:51.749Z,9.72
2023-03-26T03:11:26.884Z,9.67
2023-03-26T03:12:29.781Z,9.67
2023-03-26T03:13:32.159Z,9.65
2023-03-26T03:14:35.638Z,9.65
2023-03-26T03:15:37.794Z,9.68
2023-03-26T03:16:41.392Z,9.73
2023-03-26T03:17:46.838Z,9.83
2023-03-26T03:18:57.869Z,9.84
2023-03-26T03:20:12.061Z,9.70
2023-03-26T03:21:14.846Z,9.63
2023-03-26T03:22:17.261Z,9.56
2023-03-26T03:23:22.865Z,9.55
2023-03-26T03:24:33.768Z,9.57
2023-03-26T03:25:38.202Z,9.60
2023-03-26T03:26:42.390Z,9.70
2023-03-26T03:28:05.514Z,9.72
2023-03-26T03:29:09.334Z,9.75
2023-03-26T03:30:13.873Z,9.81
2023-03-26T03:31:21.872Z,9.79
2023-03-26T03:32:25.072Z,9.79
2023-03-26T03:33:30.687Z,9.82
2023-03-26T03:34:32.866Z,9.74
2023-03-26T03:35:35.593Z,9.75
2023-03-26T03:36:38.578Z,9.76
2023-03-26T03:38:00.481Z,9.73
2023-03-26T03:39:05.305Z,9.72
2023-03-26T03:40:10.934Z,9.74
2023-03-26T03:41:14.575Z,9.72
2023-03-26T03:42:18.886Z,9.72
2023-03-26T03:43:22.031Z,9.67
2023-03-26T03:44:38.098Z,9.41
2023-03-26T03:45:48.646Z,9.40
2023-03-26T03:47:04.261Z,9.30
2023-03-26T03:48:06.688Z,9.27
2023-03-26T03:49:15.517Z,9.36
2023-03-26T03:50:17.897Z,9.41
2023-03-26T03:51:35.229Z,9.42
2023-03-26T03:52:40.569Z,9.42
2023-03-26T03:53:43.244Z,9.47
2023-03-26T03:54:46.532Z,9.49
2023-03-26T03:56:10.537Z,9.48
2023-03-26T03:57:36.136Z,9.50
2023-03-26T03:58:42.413Z,9.47
2023-03-26T03:59:50.150Z,9.42
2023-03-26T04:01:00.727Z,9.46
2023-03-26T04:02:43.047Z,9.46
2023-03-26T04:03:47.012Z,9.41
2023-03-26T04:04:52.065Z,9.39
2023-03-26T04:05:56.846Z,9.39
2023-03-26T04:07:02.771Z,9.41
2023-03-26T04:08:12.356Z,9.25
2023-03-26T04:09:23.964Z,9.24
2023-03-26T04:10:27.809Z,9.18
2023-03-26T04:12:01.770Z,9.18
2023-03-26T04:13:20.860Z,9.20
2023-03-26T04:15:01.824Z,9.18
2023-03-26T04:16:05.449Z,9.16
2023-03-26T04:17:07.903Z,9.16
2023-03-26T04:18:13.229Z,9.09
2023-03-26T04:19:18.673Z,9.06
2023-03-26T04:20:21.120Z,9.02
2023-03-26T04:21:26.297Z,8.92
2023-03-26T04:22:34.580Z,8.93
2023-03-26T04:23:39.726Z,8.99
2023-03-26T04:24:54.363Z,9.00
2023-03-26T04:26:20.062Z,8.99
2023-03-26T04:27:58.463Z,8.97
2023-03-26T04:29:24.385Z,8.93
2023-03-26T04:30:27.583Z,9.01
2023-03-26T04:31:38.340Z,9.04
2023-03-26T04:32:43.081Z,9.07
2023-03-26T04:33:47.337Z,9.00
2023-03-26T04:34:52.716Z,8.95
2023-03-26T04:36:02.644Z,8.89
2023-03-26T04:37:07.186Z,8.90
2023-03-26T04:38:17.549Z,8.93
2023-03-26T04:39:23.113Z,8.90
2023-03-26T04:40:47.539Z,8.89
2023-03-26T04:41:49.868Z,8.86
2023-03-26T04:42:54.588Z,8.87
2023-03-26T04:44:09.697Z,8.94
2023-03-26T04:45:17.749Z,8.92
2023-03-26T04:46:23.470Z,9.03
2023-03-26T04:47:39.211Z,9.01
2023-03-26T04:48:42.470Z,8.94
2023-03-26T04:49:46.341Z,8.95
2023-03-26T04:50:50.797Z,8.97
2023-03-26T04:51:55.671Z,8.88
2023-03-26T04:53:21.346Z,8.84
2023-03-26T04:54:56.741Z,8.78
2023-03-26T04:56:13.300Z,8.73
2023-03-26T04:57:46.448Z,8.76
2023-03-26T04:59:13.725Z,8.66
2023-03-26T05:00:21.379Z,8.65
2023-03-26T05:01:28.819Z,8.69
2023-03-26T05:02:32.711Z,8.73
2023-03-26T05:03:39.106Z,8.74
2023-03-26T05:04:48.454Z,8.74
2023-03-26T05:05:51.479Z,8.78
2023-03-26T05:06:54.237Z,8.80
2023-03-26T05:08:08.534Z,8.77
2023-03-26T05:09:11.591Z,8.71
2023-03-26T05:10:32.315Z,8.75
2023-03-26T05:11:40.418Z,8.81
2023-03-26T05:12:43.331Z,8.86
2023-03-26T05:13:51.076Z,8.92
2023-03-26T05:14:54.035Z,8.90
2023-03-26T05:16:07.269Z,8.84
2023-03-26T05:17:18.808Z,8.90
2023-03-26T05:18:22.763Z,8.94
2023-03-26T05:19:27.890Z,8.98
2023-03-26T05:20:31.150Z,9.04
2023-03-26T05:21:33.363Z,9.09
2023-03-26T05:22:38.132Z,9.19
2023-03-26T05:23:54.036Z,9.22
2023-03-26T05:24:57.938Z,9.16
2023-03-26T05:26:00.271Z,9.21
2023-03-26T05:27:02.585Z,9.20
2023-03-26T05:28:10.859Z,9.25
2023-03-26T05:29:29.144Z,9.15
2023-03-26T05:30:31.550Z,9.16
2023-03-26T05:31:36.179Z,9.13
2023-03-26T05:32:39.291Z,9.18
2023-03-26T05:33:42.677Z,9.20
2023-03-26T05:34:47.687Z,9.23
2023-03-26T05:36:17.590Z,9.22
2023-03-26T05:37:25.705Z,9.15
2023-03-26T05:38:37.425Z,9.14
2023-03-26T05:39:43.877Z,9.05
2023-03-26T05:41:12.115Z,9.17
2023-03-26T05:42:17.527Z,9.19
2023-03-26T05:43:47.708Z,9.23
2023-03-26T05:44:56.894Z,9.24
2023-03-26T05:46:03.682Z,9.27
2023-03-26T05:47:07.662Z,9.22
2023-03-26T05:48:09.980Z,9.32
2023-03-26T05:49:12.334Z,9.38
2023-03-26T05:50:15.595Z,9.32
2023-03-26T05:51:18.967Z,9.36
2023-03-26T05:52:33.239Z,9.24
2023-03-26T05:53:53.711Z,9.20
2023-03-26T05:55:14.838Z,9.30
2023-03-26T05:56:37.362Z,9.34
2023-03-26T05:58:08.865Z,9.37
2023-03-26T05:59:26.283Z,9.43
2023-03-26T06:00:48.955Z,9.46
2023-03-26T06:02:01.105Z,9.49
2023-03-26T06:03:26.823Z,9.57
2023-03-26T06:04:42.819Z,9.59
2023-03-26T06:06:06.681Z,9.69
2023-03-26T06:07:21.006Z,9.63
2023-03-26T06:08:35.978Z,9.55
2023-03-26T06:09:40.060Z,9.66
2023-03-26T06:10:44.054Z,9.67
2023-03-26T06:11:46.309Z,9.71
2023-03-26T06:12:49.673Z,9.68
2023-03-26T06:13:52.758Z,9.69
2023-03-26T06:14:54.947Z,9.69
2023-03-26T06:16:26.217Z,9.83
2023-03-26T06:18:05.896Z,9.87
2023-03-26T06:19:08.182Z,9.84
2023-03-26T06:20:30.901Z,9.81
2023-03-26T06:21:33.864Z,9.90
2023-03-26T06:22:45.954Z,9.97
2023-03-26T06:23:56.880Z,9.95
2023-03-26T06:25:18.860Z,9.86
2023-03-26T06:26:53.648Z,9.82
2023-03-26T06:28:18.721Z,9.92
2023-03-26T06:29:31.593Z,10.04
2023-03-26T06:31:08.070Z,9.81
2023-03-26T06:32:25.683Z,9.71
2023-03-26T06:33:48.819Z,9.62
2023-03-26T06:34:51.509Z,9.65
2023-03-26T06:35:54.429Z,9.62
2023-03-26T06:36:56.870Z,9.62
2023-03-26T06:37:59.744Z,9.67
2023-03-26T06:39:07.550Z,9.73
2023-03-26T06:40:13.049Z,9.74
2023-03-26T06:41:41.389Z,9.77
2023-03-26T06:43:08.022Z,9.83
2023-03-26T06:44:38.244Z,9.90
2023-03-26T06:46:02.129Z,9.93
2023-03-26T06:47:13.360Z,9.96
2023-03-26T06:48:33.826Z,9.70
2023-03-26T06:50:02.255Z,9.58
2023-03-26T06:51:15.806Z,9.65
2023-03-26T06:52:56.622Z,9.79
2023-03-26T06:54:25.226Z,9.63
2023-03-26T06:55:31.327Z,9.56
2023-03-26T06:56:41.600Z,9.57
2023-03-26T06:58:12.078Z,9.69
2023-03-26T06:59:37.677Z,9.83
2023-03-26T07:00:58.500Z,9.90
2023-03-26T07:02:19.719Z,9.90
2023-03-26T07:03:40.812Z,9.97
2023-03-26T07:05:10.225Z,10.06
2023-03-26T07:06:32.092Z,9.75
2023-03-26T07:08:00.946Z,9.91
2023-03-26T07:09:21.908Z,10.07
2023-03-26T07:10:42.613Z,10.20
2023-03-26T07:11:59.368Z,10.27
2023-03-26T07:13:01.652Z,10.30
2023-03-26T07:14:24.828Z,10.24
2023-03-26T07:15:53.215Z,10.07
2023-03-26T07:17:13.038Z,10.08
2023-03-26T07:18:38.114Z,10.23
2023-03-26T07:19:43.470Z,10.23
2023-03-26T07:20:46.575Z,10.31
2023-03-26T07:21:49.649Z,10.37
2023-03-26T07:23:13.753Z,10.30
2023-03-26T07:24:42.667Z,10.47
2023-03-26T07:26:12.916Z,10.29
2023-03-26T07:28:24.327Z,10.34
2023-03-26T07:29:45.464Z,10.38
2023-03-26T07:31:19.775Z,10.48
2023-03-26T07:32:54.616Z,10.53
2023-03-26T07:34:40.056Z,10.61
2023-03-26T07:36:26.574Z,10.58
2023-03-26T07:38:16.334Z,10.47
2023-03-26T07:39:48.228Z,10.61
2023-03-26T07:41:11.172Z,10.73
2023-03-26T07:42:46.815Z,11.00
2023-03-26T07:44:13.146Z,11.09
2023-03-26T07:45:44.208Z,10.99
2023-03-26T07:47:02.445Z,11.05
2023-03-26T07:48:21.090Z,11.11
2023-03-26T07:49:43.385Z,11.18
2023-03-26T07:50:52.231Z,11.30
2023-03-26T07:52:21.759Z,11.40
2023-03-26T07:53:42.921Z,11.11
2023-03-26T07:55:15.951Z,10.93
2023-03-26T07:56:42.995Z,10.81
2023-03-26T07:59:00.919Z,10.96
2023-03-26T08:00:46.846Z,11.02
2023-03-26T08:02:02.175Z,11.26
2023-03-26T08:04:23.165Z,11.43
2023-03-26T08:05:53.094Z,11.72
2023-03-26T08:07:14.971Z,11.67
2023-03-26T08:08:45.934Z,11.47
2023-03-26T08:10:43.130Z,11.54
2023-03-26T08:12:09.341Z,11.61
2023-03-26T08:13:23.867Z,11.43
2023-03-26T08:14:55.304Z,11.48
2023-03-26T08:15:58.036Z,11.58
2023-03-26T08:17:31.352Z,11.75
2023-03-26T08:18:51.525Z,11.88
2023-03-26T08:20:02.273Z,11.89
2023-03-26T08:21:06.246Z,11.52
2023-03-26T08:22:27.411Z,11.24
2023-03-26T08:23:38.353Z,11.40
2023-03-26T08:25:18.118Z,11.76
2023-03-26T08:26:41.767Z,11.90
2023-03-26T08:28:05.289Z,11.59
2023-03-26T08:29:15.318Z,11.28
2023-03-26T08:30:20.607Z,11.41
2023-03-26T08:31:35.596Z,11.89
2023-03-26T08:32:38.694Z,12.26
2023-03-26T08:33:41.708Z,12.75
2023-03-26T08:34:46.328Z,13.16
2023-03-26T08:35:49.805Z,13.34
2023-03-26T08:36:52.317Z,13.62
2023-03-26T08:37:55.322Z,13.67
2023-03-26T08:38:59.573Z,13.79
2023-03-26T08:40:02.456Z,13.77
2023-03-26T08:41:39.909Z,13.73
2023-03-26T08:43:07.265Z,13.33
2023-03-26T08:44:45.112Z,13.31
2023-03-26T08:46:14.874Z,12.87
2023-03-26T08:47:35.605Z,12.28
2023-03-26T08:49:00.540Z,12.07
2023-03-26T08:50:30.606Z,12.18
2023-03-26T08:51:44.676Z,12.09
2023-03-26T08:53:21.156Z,12.10
2023-03-26T08:54:42.055Z,12.17
2023-03-26T08:55:52.811Z,11.81
2023-03-26T08:57:39.671Z,11.68
2023-03-26T08:59:03.017Z,11.87
2023-03-26T09:00:33.607Z,11.92
2023-03-26T09:01:57.175Z,11.91
2023-03-26T09:03:17.203Z,11.91
2023-03-26T09:04:28.289Z,12.02
2023-03-26T09:05:55.165Z,12.07
2023-03-26T09:07:07.022Z,12.04
2023-03-26T09:08:31.166Z,11.97
2023-03-26T09:09:52.266Z,12.39
2023-03-26T09:10:55.082Z,12.72
2023-03-26T09:12:14.868Z,12.72
2023-03-26T09:13:41.776Z,12.65
2023-03-26T09:14:59.405Z,13.18
2023-03-26T09:16:07.656Z,13.47
2023-03-26T09:17:47.223Z,13.54
2023-03-26T09:19:02.426Z,13.47
2023-03-26T09:20:42.212Z,13.38
2023-03-26T09:21:50.803Z,13.32
2023-03-26T09:23:10.091Z,13.35
2023-03-26T09:24:33.185Z,13.25
2023-03-26T09:25:44.476Z,13.05
2023-03-26T09:27:14.915Z,12.69
2023-03-26T09:28:53.938Z,12.41
2023-03-26T09:30:02.114Z,12.08
2023-03-26T09:31:39.053Z,12.13
2023-03-26T09:33:03.662Z,12.31
2023-03-26T09:34:27.666Z,12.20
2023-03-26T09:35:42.199Z,12.14
2023-03-26T09:37:26.780Z,12.19
2023-03-26T09:38:43.005Z,12.39
2023-03-26T09:40:13.797Z,12.37
2023-03-26T09:42:21.071Z,12.47
2023-03-26T09:44:12.784Z,12.28
2023-03-26T09:45:22.508Z,12.38
2023-03-26T09:46:49.636Z,12.49
2023-03-26T09:48:18.914Z,12.54
2023-03-26T09:49:39.779Z,12.64
2023-03-26T09:51:09.133Z,12.57
2023-03-26T09:52:46.334Z,12.33
2023-03-26T09:53:59.406Z,12.20
2023-03-26T09:55:15.220Z,12.35
2023-03-26T09:56:36.833Z,12.47
2023-03-26T09:58:03.028Z,12.60
2023-03-26T09:59:15.459Z,12.79
2023-03-26T10:00:38.971Z,12.94
2023-03-26T10:02:04.311Z,12.86
2023-03-26T10:03:28.877Z,13.07
2023-03-26T10:05:00.417Z,12.77
2023-03-26T10:06:22.801Z,12.78
2023-03-26T10:07:24.930Z,12.63
2023-03-26T10:08:55.639Z,12.61
2023-03-26T10:10:12.257Z,12.57
2023-03-26T10:11:51.295Z,12.73
2023-03-26T10:13:13.896Z,12.92
2023-03-26T10:14:32.495Z,13.04
2023-03-26T10:15:50.730Z,13.17
2023-03-26T10:17:06.851Z,13.24
2023-03-26T10:18:27.168Z,13.23
2023-03-26T10:19:46.415Z,13.13
2023-03-26T10:21:10.829Z,13.16
2023-03-26T10:22:25.550Z,13.14
2023-03-26T10:23:58.188Z,13.15
2023-03-26T10:25:19.074Z,13.12
2023-03-26T10:26:29.218Z,13.18
2023-03-26T10:28:00.998Z,13.32
2023-03-26T10:29:08.758Z,13.36
2023-03-26T10:30:25.874Z,13.54
2023-03-26T10:31:52.308Z,13.66
2023-03-26T10:33:45.255Z,13.89
2023-03-26T10:35:23.367Z,13.88
2023-03-26T10:36:30.271Z,13.86
2023-03-26T10:37:35.351Z,13.75
2023-03-26T10:38:37.528Z,13.78
2023-03-26T10:40:05.962Z,13.78
2023-03-26T10:41:21.533Z,13.81
2023-03-26T10:42:53.273Z,13.77
2023-03-26T10:44:14.736Z,13.67
2023-03-26T10:45:54.289Z,13.61
2023-03-26T10:47:18.294Z,13.60
2023-03-26T10:48:21.351Z,13.71
2023-03-26T10:49:44.696Z,13.79
2023-03-26T10:50:54.983Z,13.97
2023-03-26T10:52:00.995Z,14.07
2023-03-26T10:53:24.786Z,14.15
2023-03-26T10:54:59.766Z,14.20
2023-03-26T10:56:16.600Z,14.17
2023-03-26T10:57:40.951Z,14.24
2023-03-26T10:58:49.257Z,14.34
2023-03-26T10:59:56.059Z,14.39
2023-03-26T11:01:06.266Z,13.84
2023-03-26T11:02:29.320Z,13.59
2023-03-26T11:03:54.315Z,13.40
2023-03-26T11:04:59.402Z,13.12
2023-03-26T11:06:07.699Z,13.09
2023-03-26T11:07:35.346Z,12.99
2023-03-26T11:09:02.816Z,13.09
2023-03-26T11:10:17.691Z,13.24
2023-03-26T11:11:32.888Z,13.40
2023-03-26T11:12:57.533Z,13.40
2023-03-26T11:14:31.854Z,13.32
2023-03-26T11:15:50.320Z,13.29
2023-03-26T11:17:40.259Z,12.93
2023-03-26T11:19:10.195Z,13.03
2023-03-26T11:20:31.256Z,13.17
2023-03-26T11:21:50.800Z,13.08
2023-03-26T11:23:20.409Z,12.92
2023-03-26T11:25:18.210Z,12.90
2023-03-26T11:26:44.784Z,13.04
2023-03-26T11:28:02.638Z,13.17
2023-03-26T11:29:31.522Z,13.35
2023-03-26T11:30:53.646Z,13.42
2023-03-26T11:32:11.063Z,13.66
2023-03-26T11:33:25.873Z,13.67
2023-03-26T11:34:40.952Z,13.57
2023-03-26T11:35:50.061Z,13.46
2023-03-26T11:36:56.724Z,13.61
2023-03-26T11:38:04.432Z,13.76
2023-03-26T11:39:13.943Z,13.84
2023-03-26T11:40:41.602Z,13.76
2023-03-26T11:41:55.315Z,13.58
2023-03-26T11:43:07.837Z,13.35
2023-03-26T11:44:30.616Z,13.25
2023-03-26T11:45:37.507Z,13.42
2023-03-26T11:46:44.044Z,13.53
2023-03-26T11:48:04.077Z,13.66
2023-03-26T11:49:11.262Z,13.64
2023-03-26T11:50:28.591Z,13.72
2023-03-26T11:51:33.837Z,13.58
2023-03-26T11:52:36.939Z,13.58
2023-03-26T11:53:39.661Z,13.54
2023-03-26T11:54:43.386Z,13.49
2023-03-26T11:55:57.659Z,13.63
2023-03-26T11:57:24.548Z,13.54
2023-03-26T11:59:01.196Z,13.65
2023-03-26T12:00:17.243Z,13.69
2023-03-26T12:01:31.930Z,13.58
2023-03-26T12:02:41.656Z,13.15
2023-03-26T12:03:59.026Z,13.08
2023-03-26T12:05:18.019Z,13.25
2023-03-26T12:06:27.285Z,13.10
2023-03-26T12:07:32.868Z,13.01
2023-03-26T12:08:39.480Z,13.14
2023-03-26T12:09:53.693Z,13.18
2023-03-26T12:11:03.767Z,13.22
2023-03-26T12:12:06.515Z,13.29
2023-03-26T12:13:32.492Z,13.14
2023-03-26T12:14:35.467Z,13.16
2023-03-26T12:15:43.174Z,13.00
2023-03-26T12:17:05.847Z,13.07
2023-03-26T12:18:25.492Z,12.99
2023-03-26T12:19:33.865Z,13.00
2023-03-26T12:20:36.877Z,13.06
2023-03-26T12:21:50.358Z,13.16
2023-03-26T12:23:00.801Z,13.34
2023-03-26T12:24:34.052Z,13.35
2023-03-26T12:25:38.830Z,13.15
2023-03-26T12:26:44.928Z,13.00
2023-03-26T12:28:05.079Z,13.30
2023-03-26T12:29:16.544Z,13.44
2023-03-26T12:30:20.697Z,13.54
2023-03-26T12:31:26.438Z,13.70
2023-03-26T12:32:45.248Z,13.80
2023-03-26T12:34:13.657Z,13.88
2023-03-26T12:35:26.923Z,14.00
2023-03-26T12:36:31.589Z,14.06
2023-03-26T12:37:38.809Z,14.07
2023-03-26T12:38:42.464Z,14.15
2023-03-26T12:40:09.913Z,14.21
2023-03-26T12:41:08.648Z,14.34
2023-03-26T12:44:44.588Z,14.35
2023-03-26T12:44:53.355Z,14.06
2023-03-26T12:45:27.925Z,14.19
2023-03-26T12:47:56.096Z,13.95
2023-03-26T12:48:04.206Z,13.92
2023-03-26T12:49:08.911Z,13.99
2023-03-26T12:50:15.546Z,13.92
2023-03-26T12:51:49.591Z,13.92
2023-03-26T12:53:07.397Z,13.94
2023-03-26T12:54:15.350Z,14.01
2023-03-26T12:55:37.984Z,14.18
2023-03-26T12:56:49.938Z,14.41
2023-03-26T12:58:44.033Z,14.61
2023-03-26T13:00:12.558Z,14.61
2023-03-26T13:01:42.232Z,14.61
2023-03-26T13:03:00.150Z,14.69
2023-03-26T13:04:43.615Z,14.65
2023-03-26T13:06:26.584Z,14.56
2023-03-26T13:08:05.135Z,14.31
2023-03-26T13:09:37.746Z,14.39
2023-03-26T13:11:09.369Z,14.57
2023-03-26T13:12:40.978Z,14.83
2023-03-26T13:13:52.855Z,14.78
2023-03-26T13:15:06.800Z,14.80
2023-03-26T13:16:46.497Z,14.99
2023-03-26T13:18:21.637Z,14.98
2023-03-26T13:19:27.280Z,15.02
2023-03-26T13:20:43.386Z,14.97
2023-03-26T13:21:49.387Z,15.03
2023-03-26T13:23:08.298Z,15.12
2023-03-26T13:24:41.777Z,15.14
2023-03-26T13:25:55.582Z,15.25
2023-03-26T13:27:18.116Z,15.21
2023-03-26T13:28:39.371Z,15.23
2023-03-26T13:30:13.389Z,14.90
2023-03-26T13:31:29.342Z,14.59
2023-03-26T13:32:49.673Z,14.35
2023-03-26T13:34:07.587Z,14.40
2023-03-26T13:35:12.749Z,14.14
2023-03-26T13:36:41.620Z,14.16
2023-03-26T13:38:08.327Z,14.19
2023-03-26T13:39:26.242Z,14.09
2023-03-26T13:40:37.633Z,14.02
2023-03-26T13:41:56.592Z,14.10
2023-03-26T13:43:18.139Z,14.01
2023-03-26T13:44:51.258Z,13.94
2023-03-26T13:46:09.142Z,13.86
2023-03-26T13:47:17.138Z,13.88
2023-03-26T13:48:44.790Z,13.64
2023-03-26T13:49:51.937Z,13.57
2023-03-26T13:51:05.247Z,13.73
2023-03-26T13:52:13.290Z,13.93
2023-03-26T13:53:24.282Z,14.08
2023-03-26T13:54:52.085Z,14.11
2023-03-26T13:55:59.884Z,14.24
2023-03-26T13:57:24.158Z,14.30
2023-03-26T13:58:43.037Z,14.18
2023-03-26T13:59:54.629Z,14.08
2023-03-26T14:01:10.107Z,13.90
2023-03-26T14:02:23.486Z,13.83
2023-03-26T14:03:52.508Z,13.83
2023-03-26T14:05:02.181Z,13.87
2023-03-26T14:06:11.505Z,13.94
2023-03-26T14:07:23.694Z,14.03
2023-03-26T14:08:36.188Z,13.79
2023-03-26T14:09:51.204Z,13.83
2023-03-26T14:11:06.336Z,13.73
2023-03-26T14:12:21.557Z,13.70
2023-03-26T14:13:36.356Z,13.70
2023-03-26T14:14:51.132Z,13.83
2023-03-26T14:16:10.880Z,13.66
2023-03-26T14:17:28.486Z,13.62
2023-03-26T14:18:37.904Z,13.70
2023-03-26T14:20:11.155Z,13.88
2023-03-26T14:21:25.160Z,14.04
2023-03-26T14:22:37.454Z,14.08
2023-03-26T14:24:07.576Z,14.05
2023-03-26T14:25:27.152Z,13.94
2023-03-26T14:26:56.065Z,13.83
2023-03-26T14:28:51.578Z,13.75
2023-03-26T14:30:18.806Z,13.77
2023-03-26T14:31:33.175Z,13.96
2023-03-26T14:32:41.226Z,14.04
2023-03-26T14:34:11.462Z,13.99
2023-03-26T14:35:37.833Z,14.09
2023-03-26T14:37:09.529Z,14.15
2023-03-26T14:38:29.742Z,14.15
2023-03-26T14:39:54.123Z,14.15
2023-03-26T14:41:02.201Z,14.31
2023-03-26T14:42:23.263Z,14.34
2023-03-26T14:43:34.609Z,14.37
2023-03-26T14:45:08.241Z,14.42
2023-03-26T14:46:20.336Z,14.50
2023-03-26T14:47:24.927Z,14.52
2023-03-26T14:48:42.121Z,14.57
2023-03-26T14:50:21.570Z,14.55
2023-03-26T14:51:36.233Z,14.74
2023-03-26T14:52:41.334Z,14.69
2023-03-26T14:53:50.913Z,14.70
2023-03-26T14:54:57.901Z,14.69
2023-03-26T14:56:16.329Z,14.70
2023-03-26T14:57:46.084Z,14.57
2023-03-26T14:59:07.326Z,14.64
2023-03-26T15:00:22.655Z,14.70
2023-03-26T15:02:21.732Z,14.64
2023-03-26T15:03:24.147Z,14.62
2023-03-26T15:04:41.521Z,14.65
2023-03-26T15:06:21.092Z,14.70
2023-03-26T15:08:00.954Z,14.69
2023-03-26T15:09:40.890Z,14.61
2023-03-26T15:10:49.753Z,14.58
2023-03-26T15:12:15.826Z,14.71
2023-03-26T15:13:36.800Z,14.70
2023-03-26T15:14:51.271Z,14.60
2023-03-26T15:16:05.322Z,14.59
2023-03-26T15:17:25.986Z,14.65
2023-03-26T15:18:34.312Z,14.72
2023-03-26T15:19:53.019Z,14.70
2023-03-26T15:21:24.530Z,14.73
2023-03-26T15:22:47.710Z,14.79
2023-03-26T15:24:27.484Z,15.02
2023-03-26T15:26:16.024Z,15.03
2023-03-26T15:27:36.826Z,15.06
2023-03-26T15:28:57.605Z,15.00
2023-03-26T15:30:21.642Z,14.80
2023-03-26T15:31:47.485Z,14.57
2023-03-26T15:33:28.338Z,14.48
2023-03-26T15:35:09.671Z,14.55
2023-03-26T15:36:21.546Z,14.61
2023-03-26T15:37:23.800Z,14.51
2023-03-26T15:38:52.302Z,14.43
2023-03-26T15:40:30.212Z,14.36
2023-03-26T15:41:44.577Z,14.40
2023-03-26T15:43:02.088Z,14.64
2023-03-26T15:44:22.905Z,14.72
2023-03-26T15:45:33.108Z,14.66
2023-03-26T15:46:38.292Z,14.47
2023-03-26T15:47:56.286Z,14.43
2023-03-26T15:49:39.724Z,14.40
2023-03-26T15:50:49.944Z,14.45
2023-03-26T15:52:20.182Z,14.47
2023-03-26T15:53:23.516Z,14.35
2023-03-26T15:54:30.364Z,14.13
2023-03-26T15:55:51.425Z,14.00
2023-03-26T15:57:20.164Z,13.86
2023-03-26T15:58:30.811Z,13.49
2023-03-26T15:59:54.493Z,13.37
2023-03-26T16:01:03.001Z,13.37
2023-03-26T16:02:10.040Z,13.42
2023-03-26T16:03:31.367Z,13.25
2023-03-26T16:04:50.353Z,13.12
2023-03-26T16:06:20.511Z,13.03
2023-03-26T16:07:58.854Z,12.78
2023-03-26T16:09:38.892Z,12.67
2023-03-26T16:10:52.220Z,12.43
2023-03-26T16:12:00.395Z,12.55
2023-03-26T16:13:25.704Z,12.65
2023-03-26T16:14:46.857Z,12.63
2023-03-26T16:16:07.035Z,12.50
2023-03-26T16:17:27.759Z,12.23
2023-03-26T16:18:36.000Z,12.14
2023-03-26T16:19:41.111Z,12.13
2023-03-26T16:20:54.788Z,12.03
2023-03-26T16:22:05.971Z,11.90
2023-03-26T16:23:19.516Z,11.99
2023-03-26T16:24:28.083Z,12.04
2023-03-26T16:25:34.025Z,11.95
2023-03-26T16:26:51.698Z,11.95
2023-03-26T16:28:09.108Z,11.82